sensor_id;sensor_type;location;lat;lon;timestamp;P1;durP1;ratioP1;P2;durP2;ratioP2
57029;SDS011;42920;45.306;20.448;2023-06-24T00:02:08;11.05;;;5.38;;
57029;SDS011;42920;45.306;20.448;2023-06-24T00:04:34;10.65;;;4.95;;
57029;SDS011;42920;45.306;20.448;2023-06-24T00:07:00;23.15;;;5.65;;
57029;SDS011;42920;45.306;20.448;2023-06-24T00:09:26;14.32;;;4.88;;
57029;SDS011;42920;45.306;20.448;2023-06-24T00:11:53;14.60;;;5.57;;
57029;SDS011;42920;45.306;20.448;2023-06-24T00:14:21;11.50;;;5.07;;
57029;SDS011;42920;45.306;20.448;2023-06-24T00:16:50;17.40;;;5.25;;
57029;SDS011;42920;45.306;20.448;2023-06-24T00:19:18;13.93;;;5.25;;
57029;SDS011;42920;45.306;20.448;2023-06-24T00:21:45;12.05;;;5.03;;
57029;SDS011;42920;45.306;20.448;2023-06-24T00:24:21;8.63;;;4.22;;
57029;SDS011;42920;45.306;20.448;2023-06-24T00:26:53;10.50;;;3.83;;
57029;SDS011;42920;45.306;20.448;2023-06-24T00:29:19;8.90;;;3.90;;
57029;SDS011;42920;45.306;20.448;2023-06-24T00:31:45;8.98;;;3.75;;
57029;SDS011;42920;45.306;20.448;2023-06-24T00:34:11;14.38;;;4.28;;
57029;SDS011;42920;45.306;20.448;2023-06-24T00:36:37;12.80;;;3.95;;
57029;SDS011;42920;45.306;20.448;2023-06-24T00:39:03;6.93;;;3.17;;
57029;SDS011;42920;45.306;20.448;2023-06-24T00:41:30;11.50;;;3.35;;
57029;SDS011;42920;45.306;20.448;2023-06-24T00:43:57;7.70;;;3.17;;
57029;SDS011;42920;45.306;20.448;2023-06-24T00:46:26;8.20;;;3.28;;
57029;SDS011;42920;45.306;20.448;2023-06-24T00:48:54;9.05;;;3.67;;
57029;SDS011;42920;45.306;20.448;2023-06-24T00:51:21;11.93;;;4.20;;
57029;SDS011;42920;45.306;20.448;2023-06-24T00:53:51;6.53;;;3.13;;
57029;SDS011;42920;45.306;20.448;2023-06-24T00:56:20;14.13;;;3.65;;
57029;SDS011;42920;45.306;20.448;2023-06-24T00:58:47;6.60;;;3.22;;
57029;SDS011;42920;45.306;20.448;2023-06-24T01:01:13;16.88;;;4.05;;
57029;SDS011;42920;45.306;20.448;2023-06-24T01:03:40;9.27;;;3.53;;
57029;SDS011;42920;45.306;20.448;2023-06-24T01:06:08;12.27;;;3.83;;
57029;SDS011;42920;45.306;20.448;2023-06-24T01:08:35;8.15;;;3.75;;
57029;SDS011;42920;45.306;20.448;2023-06-24T01:11:00;6.30;;;2.97;;
57029;SDS011;42920;45.306;20.448;2023-06-24T01:13:26;7.68;;;2.95;;
57029;SDS011;42920;45.306;20.448;2023-06-24T01:15:52;12.95;;;3.55;;
57029;SDS011;42920;45.306;20.448;2023-06-24T01:20:57;10.05;;;3.50;;
57029;SDS011;42920;45.306;20.448;2023-06-24T01:29:09;8.40;;;3.17;;
57029;SDS011;42920;45.306;20.448;2023-06-24T01:36:55;11.80;;;4.03;;
57029;SDS011;42920;45.306;20.448;2023-06-24T01:39:22;11.70;;;3.55;;
57029;SDS011;42920;45.306;20.448;2023-06-24T01:41:54;8.07;;;3.00;;
57029;SDS011;42920;45.306;20.448;2023-06-24T01:44:25;9.32;;;4.13;;
57029;SDS011;42920;45.306;20.448;2023-06-24T01:46:54;17.38;;;3.42;;
57029;SDS011;42920;45.306;20.448;2023-06-24T01:49:22;12.90;;;3.75;;
57029;SDS011;42920;45.306;20.448;2023-06-24T01:51:52;11.23;;;3.80;;
57029;SDS011;42920;45.306;20.448;2023-06-24T01:54:21;7.60;;;3.50;;
57029;SDS011;42920;45.306;20.448;2023-06-24T01:56:51;9.40;;;3.38;;
57029;SDS011;42920;45.306;20.448;2023-06-24T01:59:19;10.02;;;3.72;;
57029;SDS011;42920;45.306;20.448;2023-06-24T02:01:46;7.25;;;3.40;;
57029;SDS011;42920;45.306;20.448;2023-06-24T02:04:13;7.80;;;2.85;;
57029;SDS011;42920;45.306;20.448;2023-06-24T02:06:41;11.50;;;3.65;;
57029;SDS011;42920;45.306;20.448;2023-06-24T02:09:07;16.50;;;3.97;;
57029;SDS011;42920;45.306;20.448;2023-06-24T02:11:34;13.30;;;3.83;;
57029;SDS011;42920;45.306;20.448;2023-06-24T02:14:02;8.98;;;3.47;;
57029;SDS011;42920;45.306;20.448;2023-06-24T02:16:30;8.50;;;3.60;;
57029;SDS011;42920;45.306;20.448;2023-06-24T02:18:57;17.27;;;4.18;;
57029;SDS011;42920;45.306;20.448;2023-06-24T02:21:23;8.27;;;3.40;;
57029;SDS011;42920;45.306;20.448;2023-06-24T02:23:51;8.95;;;3.58;;
57029;SDS011;42920;45.306;20.448;2023-06-24T02:26:17;7.75;;;2.95;;
57029;SDS011;42920;45.306;20.448;2023-06-24T02:28:46;13.02;;;3.58;;
57029;SDS011;42920;45.306;20.448;2023-06-24T02:31:13;8.98;;;3.38;;
57029;SDS011;42920;45.306;20.448;2023-06-24T02:33:40;17.15;;;3.97;;
57029;SDS011;42920;45.306;20.448;2023-06-24T02:36:06;8.38;;;3.42;;
57029;SDS011;42920;45.306;20.448;2023-06-24T02:38:32;9.00;;;3.35;;
57029;SDS011;42920;45.306;20.448;2023-06-24T02:40:59;8.52;;;2.90;;
57029;SDS011;42920;45.306;20.448;2023-06-24T02:43:27;11.68;;;3.70;;
57029;SDS011;42920;45.306;20.448;2023-06-24T02:45:53;6.93;;;3.75;;
57029;SDS011;42920;45.306;20.448;2023-06-24T02:48:19;11.27;;;3.20;;
57029;SDS011;42920;45.306;20.448;2023-06-24T02:50:46;13.50;;;4.13;;
57029;SDS011;42920;45.306;20.448;2023-06-24T02:53:13;8.07;;;3.33;;
57029;SDS011;42920;45.306;20.448;2023-06-24T02:55:40;10.65;;;3.58;;
57029;SDS011;42920;45.306;20.448;2023-06-24T02:58:07;10.90;;;4.25;;
57029;SDS011;42920;45.306;20.448;2023-06-24T03:00:36;9.57;;;3.03;;
57029;SDS011;42920;45.306;20.448;2023-06-24T03:03:03;8.60;;;3.30;;
57029;SDS011;42920;45.306;20.448;2023-06-24T03:05:30;13.27;;;4.35;;
57029;SDS011;42920;45.306;20.448;2023-06-24T03:07:58;9.60;;;4.03;;
57029;SDS011;42920;45.306;20.448;2023-06-24T03:10:24;10.32;;;3.70;;
57029;SDS011;42920;45.306;20.448;2023-06-24T03:12:50;10.10;;;2.95;;
57029;SDS011;42920;45.306;20.448;2023-06-24T03:15:16;10.38;;;3.45;;
57029;SDS011;42920;45.306;20.448;2023-06-24T03:17:42;9.10;;;3.83;;
57029;SDS011;42920;45.306;20.448;2023-06-24T03:20:08;9.18;;;3.33;;
57029;SDS011;42920;45.306;20.448;2023-06-24T03:22:34;9.43;;;3.92;;
57029;SDS011;42920;45.306;20.448;2023-06-24T03:25:00;8.20;;;3.47;;
57029;SDS011;42920;45.306;20.448;2023-06-24T03:27:26;5.97;;;3.13;;
57029;SDS011;42920;45.306;20.448;2023-06-24T03:29:52;7.22;;;3.13;;
57029;SDS011;42920;45.306;20.448;2023-06-24T03:32:17;8.18;;;3.30;;
57029;SDS011;42920;45.306;20.448;2023-06-24T03:34:43;9.75;;;3.40;;
57029;SDS011;42920;45.306;20.448;2023-06-24T03:37:09;9.88;;;3.42;;
57029;SDS011;42920;45.306;20.448;2023-06-24T03:39:35;20.15;;;4.00;;
57029;SDS011;42920;45.306;20.448;2023-06-24T03:42:00;5.43;;;3.15;;
57029;SDS011;42920;45.306;20.448;2023-06-24T03:44:26;8.93;;;3.20;;
57029;SDS011;42920;45.306;20.448;2023-06-24T03:46:52;7.68;;;3.72;;
57029;SDS011;42920;45.306;20.448;2023-06-24T03:49:17;11.43;;;3.58;;
57029;SDS011;42920;45.306;20.448;2023-06-24T03:51:43;9.85;;;4.00;;
57029;SDS011;42920;45.306;20.448;2023-06-24T03:54:09;8.13;;;3.85;;
57029;SDS011;42920;45.306;20.448;2023-06-24T03:56:44;8.20;;;2.97;;
57029;SDS011;42920;45.306;20.448;2023-06-24T03:59:10;6.35;;;3.47;;
57029;SDS011;42920;45.306;20.448;2023-06-24T04:01:35;9.27;;;4.18;;
57029;SDS011;42920;45.306;20.448;2023-06-24T04:04:02;11.93;;;3.33;;
57029;SDS011;42920;45.306;20.448;2023-06-24T04:06:28;10.50;;;3.38;;
57029;SDS011;42920;45.306;20.448;2023-06-24T04:08:53;7.05;;;3.40;;
57029;SDS011;42920;45.306;20.448;2023-06-24T04:11:19;10.40;;;3.65;;
57029;SDS011;42920;45.306;20.448;2023-06-24T04:13:45;8.00;;;3.97;;
57029;SDS011;42920;45.306;20.448;2023-06-24T04:16:13;9.30;;;3.65;;
57029;SDS011;42920;45.306;20.448;2023-06-24T04:18:39;7.93;;;3.33;;
57029;SDS011;42920;45.306;20.448;2023-06-24T04:21:05;7.97;;;3.40;;
57029;SDS011;42920;45.306;20.448;2023-06-24T04:23:34;4.95;;;3.10;;
57029;SDS011;42920;45.306;20.448;2023-06-24T04:25:59;7.60;;;4.13;;
57029;SDS011;42920;45.306;20.448;2023-06-24T04:28:25;11.07;;;4.43;;
57029;SDS011;42920;45.306;20.448;2023-06-24T04:30:51;14.32;;;4.75;;
57029;SDS011;42920;45.306;20.448;2023-06-24T04:33:17;16.13;;;5.50;;
57029;SDS011;42920;45.306;20.448;2023-06-24T04:35:43;13.63;;;5.05;;
57029;SDS011;42920;45.306;20.448;2023-06-24T04:38:11;7.57;;;4.70;;
57029;SDS011;42920;45.306;20.448;2023-06-24T04:40:43;8.82;;;4.85;;
57029;SDS011;42920;45.306;20.448;2023-06-24T04:43:08;8.65;;;4.93;;
57029;SDS011;42920;45.306;20.448;2023-06-24T04:45:34;14.75;;;5.78;;
57029;SDS011;42920;45.306;20.448;2023-06-24T04:48:00;13.93;;;4.78;;
57029;SDS011;42920;45.306;20.448;2023-06-24T04:50:25;14.38;;;5.38;;
57029;SDS011;42920;45.306;20.448;2023-06-24T04:52:52;8.77;;;5.85;;
57029;SDS011;42920;45.306;20.448;2023-06-24T04:55:22;10.45;;;5.78;;
57029;SDS011;42920;45.306;20.448;2023-06-24T04:57:47;9.63;;;4.68;;
57029;SDS011;42920;45.306;20.448;2023-06-24T05:00:13;16.52;;;6.68;;
57029;SDS011;42920;45.306;20.448;2023-06-24T05:02:39;13.73;;;5.68;;
57029;SDS011;42920;45.306;20.448;2023-06-24T05:05:05;11.30;;;6.15;;
57029;SDS011;42920;45.306;20.448;2023-06-24T05:07:31;15.60;;;5.82;;
57029;SDS011;42920;45.306;20.448;2023-06-24T05:09:57;12.88;;;4.97;;
57029;SDS011;42920;45.306;20.448;2023-06-24T05:12:23;10.05;;;5.38;;
57029;SDS011;42920;45.306;20.448;2023-06-24T05:14:51;10.95;;;6.15;;
57029;SDS011;42920;45.306;20.448;2023-06-24T05:17:18;10.60;;;5.60;;
57029;SDS011;42920;45.306;20.448;2023-06-24T05:19:44;19.45;;;7.60;;
57029;SDS011;42920;45.306;20.448;2023-06-24T05:22:09;14.32;;;6.00;;
57029;SDS011;42920;45.306;20.448;2023-06-24T05:24:35;14.23;;;5.85;;
57029;SDS011;42920;45.306;20.448;2023-06-24T05:27:04;14.50;;;5.75;;
57029;SDS011;42920;45.306;20.448;2023-06-24T05:29:31;11.23;;;5.80;;
57029;SDS011;42920;45.306;20.448;2023-06-24T05:32:00;12.63;;;5.57;;
57029;SDS011;42920;45.306;20.448;2023-06-24T05:34:28;9.25;;;5.72;;
57029;SDS011;42920;45.306;20.448;2023-06-24T05:36:54;15.32;;;5.63;;
57029;SDS011;42920;45.306;20.448;2023-06-24T05:39:20;11.63;;;6.00;;
57029;SDS011;42920;45.306;20.448;2023-06-24T05:41:46;15.40;;;7.00;;
57029;SDS011;42920;45.306;20.448;2023-06-24T05:44:13;12.05;;;5.70;;
57029;SDS011;42920;45.306;20.448;2023-06-24T05:46:39;8.57;;;5.78;;
57029;SDS011;42920;45.306;20.448;2023-06-24T05:49:05;15.55;;;6.60;;
57029;SDS011;42920;45.306;20.448;2023-06-24T05:51:32;10.70;;;5.53;;
57029;SDS011;42920;45.306;20.448;2023-06-24T05:53:58;8.65;;;4.93;;
57029;SDS011;42920;45.306;20.448;2023-06-24T05:56:24;11.13;;;5.28;;
57029;SDS011;42920;45.306;20.448;2023-06-24T05:58:51;9.65;;;5.28;;
57029;SDS011;42920;45.306;20.448;2023-06-24T06:01:16;8.70;;;5.82;;
57029;SDS011;42920;45.306;20.448;2023-06-24T06:03:42;16.10;;;6.30;;
57029;SDS011;42920;45.306;20.448;2023-06-24T06:06:08;14.10;;;5.97;;
57029;SDS011;42920;45.306;20.448;2023-06-24T06:08:33;19.50;;;5.55;;
57029;SDS011;42920;45.306;20.448;2023-06-24T06:10:59;14.18;;;5.88;;
57029;SDS011;42920;45.306;20.448;2023-06-24T06:13:27;10.60;;;5.22;;
57029;SDS011;42920;45.306;20.448;2023-06-24T06:15:53;7.60;;;5.00;;
57029;SDS011;42920;45.306;20.448;2023-06-24T06:18:19;11.13;;;5.10;;
57029;SDS011;42920;45.306;20.448;2023-06-24T06:20:45;9.93;;;5.53;;
57029;SDS011;42920;45.306;20.448;2023-06-24T06:23:11;9.73;;;5.53;;
57029;SDS011;42920;45.306;20.448;2023-06-24T06:25:37;8.38;;;5.15;;
57029;SDS011;42920;45.306;20.448;2023-06-24T06:28:03;9.30;;;5.38;;
57029;SDS011;42920;45.306;20.448;2023-06-24T06:30:29;9.15;;;5.50;;
57029;SDS011;42920;45.306;20.448;2023-06-24T06:32:55;8.40;;;5.97;;
57029;SDS011;42920;45.306;20.448;2023-06-24T06:35:20;12.13;;;7.10;;
57029;SDS011;42920;45.306;20.448;2023-06-24T06:37:46;13.23;;;8.48;;
57029;SDS011;42920;45.306;20.448;2023-06-24T06:40:17;9.48;;;6.70;;
57029;SDS011;42920;45.306;20.448;2023-06-24T06:42:43;11.63;;;7.13;;
57029;SDS011;42920;45.306;20.448;2023-06-24T06:45:09;16.02;;;7.85;;
57029;SDS011;42920;45.306;20.448;2023-06-24T06:47:35;11.65;;;7.32;;
57029;SDS011;42920;45.306;20.448;2023-06-24T06:50:01;20.02;;;8.30;;
57029;SDS011;42920;45.306;20.448;2023-06-24T06:52:26;12.88;;;8.73;;
57029;SDS011;42920;45.306;20.448;2023-06-24T06:54:55;13.48;;;8.20;;
57029;SDS011;42920;45.306;20.448;2023-06-24T06:57:22;15.93;;;9.15;;
57029;SDS011;42920;45.306;20.448;2023-06-24T06:59:47;16.42;;;9.18;;
57029;SDS011;42920;45.306;20.448;2023-06-24T07:02:15;14.40;;;8.95;;
57029;SDS011;42920;45.306;20.448;2023-06-24T07:04:42;14.88;;;10.02;;
57029;SDS011;42920;45.306;20.448;2023-06-24T07:07:08;11.32;;;7.70;;
57029;SDS011;42920;45.306;20.448;2023-06-24T07:09:34;14.25;;;8.23;;
57029;SDS011;42920;45.306;20.448;2023-06-24T07:11:59;12.70;;;8.40;;
57029;SDS011;42920;45.306;20.448;2023-06-24T07:14:25;10.55;;;7.20;;
57029;SDS011;42920;45.306;20.448;2023-06-24T07:16:51;15.27;;;8.13;;
57029;SDS011;42920;45.306;20.448;2023-06-24T07:19:17;11.45;;;7.32;;
57029;SDS011;42920;45.306;20.448;2023-06-24T07:21:42;10.63;;;7.85;;
57029;SDS011;42920;45.306;20.448;2023-06-24T07:24:09;11.90;;;7.85;;
57029;SDS011;42920;45.306;20.448;2023-06-24T07:26:34;10.48;;;7.53;;
57029;SDS011;42920;45.306;20.448;2023-06-24T07:29:00;15.68;;;7.60;;
57029;SDS011;42920;45.306;20.448;2023-06-24T07:31:26;15.25;;;8.65;;
57029;SDS011;42920;45.306;20.448;2023-06-24T07:33:52;11.50;;;7.15;;
57029;SDS011;42920;45.306;20.448;2023-06-24T07:36:17;14.13;;;8.32;;
57029;SDS011;42920;45.306;20.448;2023-06-24T07:38:44;11.93;;;6.68;;
57029;SDS011;42920;45.306;20.448;2023-06-24T07:41:09;10.95;;;6.68;;
57029;SDS011;42920;45.306;20.448;2023-06-24T07:43:35;10.00;;;7.07;;
57029;SDS011;42920;45.306;20.448;2023-06-24T07:46:02;13.00;;;7.63;;
57029;SDS011;42920;45.306;20.448;2023-06-24T07:48:28;16.25;;;9.00;;
57029;SDS011;42920;45.306;20.448;2023-06-24T07:50:53;10.77;;;7.72;;
57029;SDS011;42920;45.306;20.448;2023-06-24T07:53:19;15.35;;;8.18;;
57029;SDS011;42920;45.306;20.448;2023-06-24T07:55:45;16.10;;;7.80;;
57029;SDS011;42920;45.306;20.448;2023-06-24T07:58:10;10.00;;;6.80;;
57029;SDS011;42920;45.306;20.448;2023-06-24T08:00:36;13.35;;;8.18;;
57029;SDS011;42920;45.306;20.448;2023-06-24T08:03:03;11.60;;;6.80;;
57029;SDS011;42920;45.306;20.448;2023-06-24T08:05:28;14.40;;;7.25;;
57029;SDS011;42920;45.306;20.448;2023-06-24T08:07:54;14.80;;;8.00;;
57029;SDS011;42920;45.306;20.448;2023-06-24T08:10:20;19.25;;;8.30;;
57029;SDS011;42920;45.306;20.448;2023-06-24T08:12:46;13.10;;;7.75;;
57029;SDS011;42920;45.306;20.448;2023-06-24T08:15:13;20.65;;;8.77;;
57029;SDS011;42920;45.306;20.448;2023-06-24T08:17:39;10.52;;;7.00;;
57029;SDS011;42920;45.306;20.448;2023-06-24T08:20:05;11.82;;;6.57;;
57029;SDS011;42920;45.306;20.448;2023-06-24T08:22:31;11.63;;;7.05;;
57029;SDS011;42920;45.306;20.448;2023-06-24T08:24:57;13.10;;;6.78;;
57029;SDS011;42920;45.306;20.448;2023-06-24T08:27:23;8.15;;;5.25;;
57029;SDS011;42920;45.306;20.448;2023-06-24T08:29:49;14.00;;;5.45;;
57029;SDS011;42920;45.306;20.448;2023-06-24T08:32:15;8.90;;;5.15;;
57029;SDS011;42920;45.306;20.448;2023-06-24T08:34:41;17.20;;;7.05;;
57029;SDS011;42920;45.306;20.448;2023-06-24T08:37:06;10.50;;;6.60;;
57029;SDS011;42920;45.306;20.448;2023-06-24T08:39:32;7.53;;;5.40;;
57029;SDS011;42920;45.306;20.448;2023-06-24T08:41:58;6.93;;;4.97;;
57029;SDS011;42920;45.306;20.448;2023-06-24T08:44:24;10.70;;;6.03;;
57029;SDS011;42920;45.306;20.448;2023-06-24T08:46:49;10.02;;;5.45;;
57029;SDS011;42920;45.306;20.448;2023-06-24T08:51:49;8.70;;;6.10;;
57029;SDS011;42920;45.306;20.448;2023-06-24T08:54:20;9.40;;;5.78;;
57029;SDS011;42920;45.306;20.448;2023-06-24T08:56:47;8.85;;;5.65;;
57029;SDS011;42920;45.306;20.448;2023-06-24T08:59:14;8.25;;;5.75;;
57029;SDS011;42920;45.306;20.448;2023-06-24T09:01:44;8.80;;;5.53;;
57029;SDS011;42920;45.306;20.448;2023-06-24T09:04:11;7.75;;;5.93;;
57029;SDS011;42920;45.306;20.448;2023-06-24T09:06:37;12.05;;;6.45;;
57029;SDS011;42920;45.306;20.448;2023-06-24T09:09:02;11.45;;;5.50;;
57029;SDS011;42920;45.306;20.448;2023-06-24T09:11:28;10.10;;;5.22;;
57029;SDS011;42920;45.306;20.448;2023-06-24T09:13:54;7.93;;;5.38;;
57029;SDS011;42920;45.306;20.448;2023-06-24T09:16:21;8.52;;;5.90;;
57029;SDS011;42920;45.306;20.448;2023-06-24T09:18:48;11.35;;;5.35;;
57029;SDS011;42920;45.306;20.448;2023-06-24T09:21:20;11.52;;;5.68;;
57029;SDS011;42920;45.306;20.448;2023-06-24T09:23:53;8.13;;;5.82;;
57029;SDS011;42920;45.306;20.448;2023-06-24T09:26:22;9.98;;;5.15;;
57029;SDS011;42920;45.306;20.448;2023-06-24T09:28:51;9.57;;;5.22;;
57029;SDS011;42920;45.306;20.448;2023-06-24T09:31:17;8.15;;;5.55;;
57029;SDS011;42920;45.306;20.448;2023-06-24T09:33:43;7.20;;;4.85;;
57029;SDS011;42920;45.306;20.448;2023-06-24T09:36:13;11.60;;;5.63;;
57029;SDS011;42920;45.306;20.448;2023-06-24T09:38:40;7.28;;;5.47;;
57029;SDS011;42920;45.306;20.448;2023-06-24T09:41:09;11.57;;;5.47;;
57029;SDS011;42920;45.306;20.448;2023-06-24T09:43:36;11.05;;;5.18;;
57029;SDS011;42920;45.306;20.448;2023-06-24T09:46:05;9.48;;;4.90;;
57029;SDS011;42920;45.306;20.448;2023-06-24T09:48:32;10.07;;;5.30;;
57029;SDS011;42920;45.306;20.448;2023-06-24T09:50:59;11.02;;;5.07;;
57029;SDS011;42920;45.306;20.448;2023-06-24T09:53:35;7.63;;;4.65;;
57029;SDS011;42920;45.306;20.448;2023-06-24T09:56:01;9.73;;;4.75;;
57029;SDS011;42920;45.306;20.448;2023-06-24T09:58:30;10.10;;;5.22;;
57029;SDS011;42920;45.306;20.448;2023-06-24T10:01:01;7.30;;;4.70;;
57029;SDS011;42920;45.306;20.448;2023-06-24T10:03:28;9.60;;;5.25;;
57029;SDS011;42920;45.306;20.448;2023-06-24T10:05:57;12.13;;;4.90;;
57029;SDS011;42920;45.306;20.448;2023-06-24T10:08:23;11.57;;;4.75;;
57029;SDS011;42920;45.306;20.448;2023-06-24T10:10:49;6.63;;;4.50;;
57029;SDS011;42920;45.306;20.448;2023-06-24T10:13:15;12.20;;;5.35;;
57029;SDS011;42920;45.306;20.448;2023-06-24T10:15:41;9.35;;;5.03;;
57029;SDS011;42920;45.306;20.448;2023-06-24T10:20:59;7.35;;;5.10;;
57029;SDS011;42920;45.306;20.448;2023-06-24T10:23:39;7.72;;;4.28;;
57029;SDS011;42920;45.306;20.448;2023-06-24T10:26:10;8.52;;;5.00;;
57029;SDS011;42920;45.306;20.448;2023-06-24T10:42:48;7.63;;;4.78;;
57029;SDS011;42920;45.306;20.448;2023-06-24T10:44:52;6.47;;;4.53;;
57029;SDS011;42920;45.306;20.448;2023-06-24T10:47:22;6.78;;;4.72;;
57029;SDS011;42920;45.306;20.448;2023-06-24T10:49:49;5.85;;;4.05;;
57029;SDS011;42920;45.306;20.448;2023-06-24T10:52:16;7.50;;;4.45;;
57029;SDS011;42920;45.306;20.448;2023-06-24T10:54:45;11.23;;;4.88;;
57029;SDS011;42920;45.306;20.448;2023-06-24T10:57:11;11.07;;;4.82;;
57029;SDS011;42920;45.306;20.448;2023-06-24T10:59:41;6.10;;;4.32;;
57029;SDS011;42920;45.306;20.448;2023-06-24T11:02:07;14.00;;;4.50;;
57029;SDS011;42920;45.306;20.448;2023-06-24T11:07:33;7.25;;;4.13;;
57029;SDS011;42920;45.306;20.448;2023-06-24T11:10:04;10.63;;;4.22;;
57029;SDS011;42920;45.306;20.448;2023-06-24T11:12:32;10.52;;;5.43;;
57029;SDS011;42920;45.306;20.448;2023-06-24T11:15:02;12.82;;;6.20;;
57029;SDS011;42920;45.306;20.448;2023-06-24T11:17:30;12.18;;;4.95;;
57029;SDS011;42920;45.306;20.448;2023-06-24T11:19:56;7.70;;;4.63;;
57029;SDS011;42920;45.306;20.448;2023-06-24T11:22:23;7.95;;;4.95;;
57029;SDS011;42920;45.306;20.448;2023-06-24T11:24:50;13.70;;;6.45;;
57029;SDS011;42920;45.306;20.448;2023-06-24T11:27:23;11.68;;;5.90;;
57029;SDS011;42920;45.306;20.448;2023-06-24T11:29:53;10.65;;;5.03;;
57029;SDS011;42920;45.306;20.448;2023-06-24T11:32:20;8.23;;;5.45;;
57029;SDS011;42920;45.306;20.448;2023-06-24T11:34:47;10.82;;;5.88;;
57029;SDS011;42920;45.306;20.448;2023-06-24T11:37:14;10.43;;;5.57;;
57029;SDS011;42920;45.306;20.448;2023-06-24T11:39:41;8.02;;;5.07;;
57029;SDS011;42920;45.306;20.448;2023-06-24T11:42:08;10.07;;;5.05;;
57029;SDS011;42920;45.306;20.448;2023-06-24T11:44:34;13.68;;;5.40;;
57029;SDS011;42920;45.306;20.448;2023-06-24T11:47:04;10.25;;;5.05;;
57029;SDS011;42920;45.306;20.448;2023-06-24T11:54:52;10.88;;;5.75;;
57029;SDS011;42920;45.306;20.448;2023-06-24T11:57:18;8.80;;;5.35;;
57029;SDS011;42920;45.306;20.448;2023-06-24T11:59:43;12.02;;;6.05;;
57029;SDS011;42920;45.306;20.448;2023-06-24T12:02:12;9.00;;;5.13;;
57029;SDS011;42920;45.306;20.448;2023-06-24T12:04:39;15.60;;;6.28;;
57029;SDS011;42920;45.306;20.448;2023-06-24T12:07:08;9.50;;;4.90;;
57029;SDS011;42920;45.306;20.448;2023-06-24T12:09:36;9.52;;;6.30;;
57029;SDS011;42920;45.306;20.448;2023-06-24T12:12:03;8.18;;;5.78;;
57029;SDS011;42920;45.306;20.448;2023-06-24T12:14:29;9.68;;;6.30;;
57029;SDS011;42920;45.306;20.448;2023-06-24T12:16:55;16.55;;;6.05;;
57029;SDS011;42920;45.306;20.448;2023-06-24T12:19:21;7.15;;;5.25;;
57029;SDS011;42920;45.306;20.448;2023-06-24T12:21:47;10.68;;;5.70;;
57029;SDS011;42920;45.306;20.448;2023-06-24T12:24:12;10.85;;;6.25;;
57029;SDS011;42920;45.306;20.448;2023-06-24T12:26:38;9.32;;;5.82;;
57029;SDS011;42920;45.306;20.448;2023-06-24T12:29:04;10.27;;;5.07;;
57029;SDS011;42920;45.306;20.448;2023-06-24T12:31:30;10.10;;;6.30;;
57029;SDS011;42920;45.306;20.448;2023-06-24T12:33:55;10.38;;;7.07;;
57029;SDS011;42920;45.306;20.448;2023-06-24T12:36:21;15.90;;;6.88;;
57029;SDS011;42920;45.306;20.448;2023-06-24T12:38:47;17.83;;;7.30;;
57029;SDS011;42920;45.306;20.448;2023-06-24T12:41:13;15.93;;;7.85;;
57029;SDS011;42920;45.306;20.448;2023-06-24T12:43:39;11.13;;;6.32;;
57029;SDS011;42920;45.306;20.448;2023-06-24T12:46:05;23.80;;;6.15;;
57029;SDS011;42920;45.306;20.448;2023-06-24T12:48:31;7.88;;;4.85;;
57029;SDS011;42920;45.306;20.448;2023-06-24T12:50:56;9.57;;;5.85;;
57029;SDS011;42920;45.306;20.448;2023-06-24T12:53:22;6.13;;;4.80;;
57029;SDS011;42920;45.306;20.448;2023-06-24T12:55:48;8.43;;;4.53;;
57029;SDS011;42920;45.306;20.448;2023-06-24T12:58:14;10.82;;;5.93;;
57029;SDS011;42920;45.306;20.448;2023-06-24T13:00:43;9.40;;;5.05;;
57029;SDS011;42920;45.306;20.448;2023-06-24T13:03:09;8.50;;;4.93;;
57029;SDS011;42920;45.306;20.448;2023-06-24T13:05:35;10.63;;;4.90;;
57029;SDS011;42920;45.306;20.448;2023-06-24T13:08:00;7.68;;;3.65;;
57029;SDS011;42920;45.306;20.448;2023-06-24T13:10:26;7.63;;;3.85;;
57029;SDS011;42920;45.306;20.448;2023-06-24T13:12:52;6.97;;;4.00;;
57029;SDS011;42920;45.306;20.448;2023-06-24T13:15:18;4.88;;;3.08;;
57029;SDS011;42920;45.306;20.448;2023-06-24T13:17:44;7.68;;;4.03;;
57029;SDS011;42920;45.306;20.448;2023-06-24T13:20:10;8.70;;;4.35;;
57029;SDS011;42920;45.306;20.448;2023-06-24T13:22:36;8.10;;;3.97;;
57029;SDS011;42920;45.306;20.448;2023-06-24T13:25:01;7.78;;;3.33;;
57029;SDS011;42920;45.306;20.448;2023-06-24T13:27:27;6.20;;;3.40;;
57029;SDS011;42920;45.306;20.448;2023-06-24T13:29:53;4.63;;;3.33;;
57029;SDS011;42920;45.306;20.448;2023-06-24T13:32:19;8.52;;;3.78;;
57029;SDS011;42920;45.306;20.448;2023-06-24T13:34:45;5.63;;;3.22;;
57029;SDS011;42920;45.306;20.448;2023-06-24T13:37:10;6.50;;;2.80;;
57029;SDS011;42920;45.306;20.448;2023-06-24T13:39:36;5.32;;;3.05;;
57029;SDS011;42920;45.306;20.448;2023-06-24T13:42:02;5.43;;;3.20;;
57029;SDS011;42920;45.306;20.448;2023-06-24T13:44:28;7.22;;;3.60;;
57029;SDS011;42920;45.306;20.448;2023-06-24T13:46:53;5.50;;;3.35;;
57029;SDS011;42920;45.306;20.448;2023-06-24T13:49:19;11.75;;;3.20;;
57029;SDS011;42920;45.306;20.448;2023-06-24T13:51:45;7.70;;;3.15;;
57029;SDS011;42920;45.306;20.448;2023-06-24T13:54:11;6.93;;;4.00;;
57029;SDS011;42920;45.306;20.448;2023-06-24T13:56:36;5.65;;;3.17;;
57029;SDS011;42920;45.306;20.448;2023-06-24T13:59:02;7.32;;;3.47;;
57029;SDS011;42920;45.306;20.448;2023-06-24T14:01:28;14.32;;;4.20;;
57029;SDS011;42920;45.306;20.448;2023-06-24T14:03:54;6.03;;;3.22;;
57029;SDS011;42920;45.306;20.448;2023-06-24T14:06:21;5.50;;;3.03;;
57029;SDS011;42920;45.306;20.448;2023-06-24T14:08:48;6.13;;;3.42;;
57029;SDS011;42920;45.306;20.448;2023-06-24T14:11:15;8.48;;;3.38;;
57029;SDS011;42920;45.306;20.448;2023-06-24T14:13:41;7.10;;;3.17;;
57029;SDS011;42920;45.306;20.448;2023-06-24T14:16:08;4.68;;;2.90;;
57029;SDS011;42920;45.306;20.448;2023-06-24T14:18:35;6.22;;;3.20;;
57029;SDS011;42920;45.306;20.448;2023-06-24T14:21:02;8.35;;;3.20;;
57029;SDS011;42920;45.306;20.448;2023-06-24T14:23:29;6.00;;;3.38;;
57029;SDS011;42920;45.306;20.448;2023-06-24T14:25:55;7.63;;;3.58;;
57029;SDS011;42920;45.306;20.448;2023-06-24T14:28:22;5.00;;;3.15;;
57029;SDS011;42920;45.306;20.448;2023-06-24T14:30:47;6.53;;;3.47;;
57029;SDS011;42920;45.306;20.448;2023-06-24T14:33:13;4.85;;;2.92;;
57029;SDS011;42920;45.306;20.448;2023-06-24T14:35:40;7.43;;;2.92;;
57029;SDS011;42920;45.306;20.448;2023-06-24T14:38:06;9.40;;;3.00;;
57029;SDS011;42920;45.306;20.448;2023-06-24T14:40:32;6.80;;;2.90;;
57029;SDS011;42920;45.306;20.448;2023-06-24T14:42:58;3.55;;;2.58;;
57029;SDS011;42920;45.306;20.448;2023-06-24T14:45:24;6.25;;;2.78;;
57029;SDS011;42920;45.306;20.448;2023-06-24T14:47:50;6.38;;;2.83;;
57029;SDS011;42920;45.306;20.448;2023-06-24T14:50:16;5.63;;;2.58;;
57029;SDS011;42920;45.306;20.448;2023-06-24T14:52:42;4.38;;;2.90;;
57029;SDS011;42920;45.306;20.448;2023-06-24T14:55:07;3.17;;;2.30;;
57029;SDS011;42920;45.306;20.448;2023-06-24T14:57:34;5.13;;;2.60;;
57029;SDS011;42920;45.306;20.448;2023-06-24T15:00:00;4.25;;;2.75;;
57029;SDS011;42920;45.306;20.448;2023-06-24T15:02:26;7.68;;;2.53;;
57029;SDS011;42920;45.306;20.448;2023-06-24T15:04:52;8.27;;;2.65;;
57029;SDS011;42920;45.306;20.448;2023-06-24T15:07:18;6.65;;;2.40;;